Time;durP1;ratioP1;P1;durP2;ratioP2;P2;SDS_P1;SDS_P2;PMS_P1;PMS_P2;Temp;Humidity;BMP_temperature;BMP_pressure;BME280_temperature;BME280_humidity;BME280_pressure;Samples;Min_cycle;Max_cycle;Signal;HPM_P1;HPM_P2
2022/07/06 00:01:07;;;;;;;3.25;1.85;;;17.70;66.30;;;;;;5042257;28;20027;-83
2022/07/06 00:03:33;;;;;;;3.00;1.67;;;17.70;66.40;;;;;;5057389;28;20040;-83
2022/07/06 00:05:59;;;;;;;5.63;2.40;;;17.70;66.30;;;;;;5057377;28;20029;-83
2022/07/06 00:08:24;;;;;;;7.65;2.17;;;17.60;66.40;;;;;;5057569;28;20036;-83
2022/07/06 00:10:50;;;;;;;6.00;1.98;;;17.60;66.20;;;;;;5045584;28;20469;-83
2022/07/06 00:13:33;;;;;;;6.38;1.70;;;17.50;66.90;;;;;;5035771;28;20121;-83
2022/07/06 00:15:59;;;;;;;4.20;1.67;;;17.50;66.80;;;;;;5037114;28;20022;-83
2022/07/06 00:18:24;;;;;;;5.10;1.70;;;17.50;66.90;;;;;;5051882;28;20395;-83
2022/07/06 00:20:50;;;;;;;6.60;2.38;;;17.50;66.70;;;;;;5038722;28;20119;-83
2022/07/06 00:23:16;;;;;;;6.53;1.80;;;17.50;66.60;;;;;;5036911;28;20507;-83
2022/07/06 00:25:42;;;;;;;4.05;2.15;;;17.40;66.70;;;;;;5037252;28;20552;-83
2022/07/06 00:28:07;;;;;;;4.13;2.17;;;17.40;66.90;;;;;;5035325;28;20033;-83
2022/07/06 00:30:33;;;;;;;4.38;2.10;;;17.50;67.10;;;;;;5036972;28;20036;-83
2022/07/06 00:32:59;;;;;;;7.40;2.83;;;17.50;67.30;;;;;;5035325;28;20125;-83
2022/07/06 00:35:25;;;;;;;9.45;2.30;;;17.30;67.20;;;;;;5036411;28;20014;-83
2022/07/06 00:37:51;;;;;;;2.75;1.90;;;17.40;67.40;;;;;;5038955;28;20419;-83
2022/07/06 00:40:17;;;;;;;6.80;2.28;;;17.40;66.90;;;;;;5056497;28;20582;-83
2022/07/06 00:42:45;;;;;;;4.30;2.08;;;17.30;67.50;;;;;;5055322;28;20035;-83
2022/07/06 00:45:11;;;;;;;5.13;2.30;;;17.30;67.70;;;;;;5054247;28;20029;-83
2022/07/06 00:47:40;;;;;;;4.10;2.35;;;17.30;67.50;;;;;;5036703;28;20519;-83
2022/07/06 00:50:13;;;;;;;4.78;2.33;;;17.30;67.80;;;;;;5035388;28;20511;-83
2022/07/06 00:53:07;;;;;;;7.20;2.33;;;17.30;67.70;;;;;;5036144;28;20033;-83
2022/07/06 00:55:33;;;;;;;6.60;2.15;;;17.30;67.60;;;;;;5035234;28;20450;-83
2022/07/06 00:58:02;;;;;;;4.85;2.45;;;17.20;67.80;;;;;;5036188;28;20033;-83
2022/07/06 01:00:29;;;;;;;6.43;2.58;;;17.30;67.40;;;;;;5043351;28;20017;-83
2022/07/06 01:02:55;;;;;;;6.28;2.40;;;17.20;67.90;;;;;;5041505;28;20053;-83
2022/07/06 01:05:21;;;;;;;9.50;3.42;;;17.20;68.20;;;;;;5036909;28;20033;-83
2022/07/06 01:07:48;;;;;;;7.35;2.35;;;17.20;68.00;;;;;;5035494;28;20045;-83
2022/07/06 01:10:16;;;;;;;8.55;2.60;;;17.20;68.40;;;;;;5036146;28;20029;-83
2022/07/06 01:12:43;;;;;;;6.80;2.47;;;17.20;68.00;;;;;;5035313;28;20116;-83
2022/07/06 01:15:14;;;;;;;5.45;1.90;;;17.20;67.40;;;;;;5035657;28;20064;-83
2022/07/06 01:17:42;;;;;;;8.20;3.03;;;17.20;67.50;;;;;;5045097;28;20047;-83
2022/07/06 01:20:22;;;;;;;5.93;2.42;;;17.20;67.60;;;;;;5054387;28;20033;-82
2022/07/06 01:22:50;;;;;;;5.43;2.88;;;17.10;67.90;;;;;;5056270;28;20033;-83
2022/07/06 01:25:16;;;;;;;3.95;2.08;;;17.10;68.60;;;;;;5043941;28;20064;-82
2022/07/06 01:27:42;;;;;;;3.92;2.30;;;17.10;67.80;;;;;;5035829;28;20022;-83
2022/07/06 01:30:10;;;;;;;7.05;2.50;;;17.10;68.50;;;;;;5034503;28;20080;-83
2022/07/06 01:32:54;;;;;;;5.72;2.65;;;17.00;68.20;;;;;;5037443;28;20037;-83
2022/07/06 01:35:20;;;;;;;5.15;1.75;;;17.00;68.60;;;;;;5035750;28;20025;-83
2022/07/06 01:37:45;;;;;;;5.63;2.65;;;16.90;68.30;;;;;;5038728;28;20025;-83
2022/07/06 01:40:12;;;;;;;6.90;2.08;;;16.90;68.20;;;;;;5054595;28;20025;-83
2022/07/06 01:42:39;;;;;;;6.18;2.20;;;16.90;68.60;;;;;;5054194;28;20564;-82
2022/07/06 01:45:05;;;;;;;9.27;2.80;;;16.90;68.40;;;;;;5054369;28;20115;-82
2022/07/06 01:47:32;;;;;;;6.15;2.53;;;16.90;68.40;;;;;;5050040;28;20116;-83
2022/07/06 01:50:07;;;;;;;7.10;2.45;;;16.80;68.80;;;;;;5034100;28;20095;-82
2022/07/06 01:52:33;;;;;;;8.85;2.50;;;16.80;69.10;;;;;;5048176;28;20037;-82
2022/07/06 01:54:58;;;;;;;5.53;2.25;;;16.80;69.20;;;;;;5055286;28;20040;-82
2022/07/06 01:57:24;;;;;;;7.20;1.98;;;16.80;69.50;;;;;;5055263;28;20025;-82
2022/07/06 01:59:50;;;;;;;6.72;2.33;;;16.70;69.50;;;;;;5055052;28;20025;-82
2022/07/06 02:02:17;;;;;;;6.47;2.47;;;16.80;69.00;;;;;;5053921;28;20053;-82
2022/07/06 02:04:42;;;;;;;6.82;2.22;;;16.80;69.20;;;;;;5054107;28;20028;-82
2022/07/06 02:07:10;;;;;;;6.03;2.63;;;16.80;69.40;;;;;;5054371;28;20029;-82
2022/07/06 02:09:36;;;;;;;14.02;2.83;;;16.70;69.90;;;;;;5035149;28;20029;-82
2022/07/06 02:12:02;;;;;;;3.85;2.53;;;16.60;69.80;;;;;;5034624;28;20092;-82
2022/07/06 02:14:28;;;;;;;5.22;2.90;;;16.70;69.80;;;;;;5035733;28;20132;-82
2022/07/06 02:16:53;;;;;;;5.05;2.60;;;16.70;69.80;;;;;;5034936;28;20022;-82
2022/07/06 02:19:19;;;;;;;4.82;2.40;;;16.70;69.50;;;;;;5037657;28;20040;-82
2022/07/06 02:21:45;;;;;;;3.55;2.50;;;16.70;69.40;;;;;;5038246;28;20436;-82
2022/07/06 02:24:10;;;;;;;4.45;2.15;;;16.70;69.30;;;;;;5039371;28;20403;-82
2022/07/06 02:26:36;;;;;;;4.30;2.30;;;16.70;69.10;;;;;;5038242;28;20075;-82
2022/07/06 02:29:02;;;;;;;6.90;2.53;;;16.70;69.50;;;;;;5038661;28;20190;-82
2022/07/06 02:31:27;;;;;;;9.20;2.97;;;16.60;69.90;;;;;;5039176;28;20100;-82
2022/07/06 02:33:53;;;;;;;7.63;3.47;;;16.60;69.30;;;;;;5040516;28;20033;-82
2022/07/06 02:36:18;;;;;;;5.80;2.67;;;16.50;69.90;;;;;;5059095;28;20025;-82
2022/07/06 02:38:44;;;;;;;5.20;2.83;;;16.60;69.60;;;;;;5057457;28;20048;-83
2022/07/06 02:41:10;;;;;;;6.50;2.88;;;16.50;70.10;;;;;;5058876;28;20017;-82
2022/07/06 02:43:38;;;;;;;8.32;3.40;;;16.60;70.30;;;;;;5051255;28;20029;-82
2022/07/06 02:46:04;;;;;;;5.78;2.60;;;16.50;70.60;;;;;;5038805;28;20399;-82
2022/07/06 02:48:30;;;;;;;8.40;2.85;;;16.50;70.40;;;;;;5038473;28;20029;-82
2022/07/06 02:50:55;;;;;;;5.40;3.45;;;16.50;70.60;;;;;;5038563;28;20438;-82
2022/07/06 02:53:21;;;;;;;4.65;2.70;;;16.50;70.40;;;;;;5037355;28;20034;-82
2022/07/06 02:55:47;;;;;;;8.25;3.22;;;16.50;71.20;;;;;;5038594;28;20038;-82
2022/07/06 02:58:15;;;;;;;10.20;3.53;;;16.50;70.50;;;;;;5050597;28;20100;-82
2022/07/06 03:00:41;;;;;;;10.55;3.10;;;16.50;70.60;;;;;;5049780;28;20029;-82
2022/07/06 03:03:07;;;;;;;6.95;3.42;;;16.40;71.10;;;;;;5058294;28;20112;-82
2022/07/06 03:05:33;;;;;;;6.18;2.95;;;16.40;71.00;;;;;;5047978;28;20495;-82
2022/07/06 03:07:58;;;;;;;9.07;3.50;;;16.30;71.60;;;;;;5038391;28;20079;-83
2022/07/06 03:10:24;;;;;;;5.68;3.58;;;16.40;71.50;;;;;;5038356;28;20029;-82
2022/07/06 03:12:49;;;;;;;4.40;3.28;;;16.30;71.40;;;;;;5038233;28;20037;-82
2022/07/06 03:15:18;;;;;;;10.15;3.35;;;16.40;71.40;;;;;;5036694;28;20060;-82
2022/07/06 03:17:43;;;;;;;7.57;3.03;;;16.40;71.30;;;;;;5047579;28;20028;-82
2022/07/06 03:20:09;;;;;;;7.10;3.30;;;16.30;71.30;;;;;;5052726;28;20021;-82
2022/07/06 03:22:35;;;;;;;5.97;3.65;;;16.30;72.00;;;;;;5038184;28;20034;-82
2022/07/06 03:25:01;;;;;;;8.93;3.72;;;16.30;72.10;;;;;;5037684;28;20048;-82
2022/07/06 03:27:26;;;;;;;5.97;3.35;;;16.30;72.10;;;;;;5037998;28;20030;-82
2022/07/06 03:29:52;;;;;;;8.95;3.95;;;16.30;72.60;;;;;;5037126;28;20053;-82
2022/07/06 03:32:29;;;;;;;7.40;3.60;;;16.30;72.50;;;;;;5038057;28;20036;-82
2022/07/06 03:34:54;;;;;;;13.48;4.25;;;16.30;72.40;;;;;;5036608;28;20026;-82
2022/07/06 03:37:20;;;;;;;12.23;3.75;;;16.30;72.20;;;;;;5037791;28;20035;-82
2022/07/06 03:39:45;;;;;;;9.00;3.65;;;16.30;72.30;;;;;;5048145;28;20074;-82
2022/07/06 03:42:11;;;;;;;5.13;3.45;;;16.20;72.00;;;;;;5057433;28;20119;-82
2022/07/06 03:44:37;;;;;;;5.32;3.40;;;16.20;72.40;;;;;;5055921;28;20025;-82
2022/07/06 03:47:02;;;;;;;8.85;3.65;;;16.20;72.60;;;;;;5037768;28;20037;-82
2022/07/06 03:49:28;;;;;;;8.27;3.83;;;16.20;72.20;;;;;;5037853;28;20033;-82
2022/07/06 03:51:54;;;;;;;8.65;4.15;;;16.20;72.20;;;;;;5037538;28;20467;-82
2022/07/06 03:54:20;;;;;;;9.73;4.75;;;16.20;72.70;;;;;;5037871;28;20069;-82
2022/07/06 03:56:46;;;;;;;10.18;4.30;;;16.20;72.30;;;;;;5037518;28;20032;-81
2022/07/06 03:59:12;;;;;;;7.43;3.70;;;16.10;72.30;;;;;;5036153;28;20044;-82
2022/07/06 04:01:38;;;;;;;6.63;3.58;;;16.10;72.20;;;;;;5054166;28;20053;-82
2022/07/06 04:04:04;;;;;;;7.20;4.50;;;16.10;72.20;;;;;;5050878;28;20125;-82
2022/07/06 04:06:39;;;;;;;7.00;3.60;;;16.10;72.70;;;;;;5037530;28;20607;-82
2022/07/06 04:09:05;;;;;;;7.07;3.25;;;16.10;72.90;;;;;;5036204;28;20167;-82
2022/07/06 04:11:30;;;;;;;5.65;3.03;;;16.00;72.40;;;;;;5037461;28;20056;-82
2022/07/06 04:13:56;;;;;;;5.10;3.55;;;16.10;72.30;;;;;;5052799;28;20048;-82
2022/07/06 04:16:22;;;;;;;5.07;2.90;;;16.00;72.10;;;;;;5057140;28;20032;-82
2022/07/06 04:18:47;;;;;;;6.97;3.03;;;16.00;72.50;;;;;;5054682;28;20030;-82
2022/07/06 04:21:13;;;;;;;4.88;2.55;;;16.00;72.50;;;;;;5036711;28;20022;-82
2022/07/06 04:23:38;;;;;;;4.25;2.35;;;16.00;72.90;;;;;;5036967;28;20502;-82
2022/07/06 04:26:04;;;;;;;3.67;2.10;;;16.00;72.90;;;;;;5044503;28;20060;-82
2022/07/06 04:28:30;;;;;;;4.22;2.25;;;16.00;73.00;;;;;;5055409;28;20057;-82
2022/07/06 04:30:56;;;;;;;3.28;2.30;;;16.00;73.50;;;;;;5055537;28;20037;-82
2022/07/06 04:33:21;;;;;;;3.50;2.22;;;16.00;73.20;;;;;;5046317;28;20025;-82
2022/07/06 04:35:47;;;;;;;3.00;2.22;;;16.00;73.60;;;;;;5036839;28;20028;-82
2022/07/06 04:38:13;;;;;;;3.50;2.00;;;16.00;73.10;;;;;;5054727;28;20029;-81
2022/07/06 04:40:39;;;;;;;4.35;2.47;;;16.10;73.00;;;;;;5054993;28;20017;-87
2022/07/06 04:43:04;;;;;;;3.50;2.63;;;16.20;72.40;;;;;;5037354;28;20411;-89
2022/07/06 04:45:30;;;;;;;3.80;2.13;;;16.20;72.60;;;;;;5035383;28;20036;-89
2022/07/06 04:47:56;;;;;;;4.18;2.60;;;16.20;72.40;;;;;;5051842;28;20162;-87
2022/07/06 04:50:21;;;;;;;6.03;2.80;;;16.20;72.60;;;;;;5056546;28;20025;-87
2022/07/06 04:52:47;;;;;;;3.35;2.35;;;16.20;72.30;;;;;;5056324;28;20025;-89
2022/07/06 04:55:14;;;;;;;4.15;2.70;;;16.30;72.10;;;;;;5049275;28;20108;-86
2022/07/06 04:57:40;;;;;;;4.38;2.63;;;16.20;72.20;;;;;;5034760;28;20029;-89
2022/07/06 05:00:06;;;;;;;4.43;2.30;;;16.20;72.00;;;;;;5040027;28;20078;-87
2022/07/06 05:02:32;;;;;;;5.63;2.35;;;16.20;72.00;;;;;;5051761;28;20060;-86
2022/07/06 05:04:58;;;;;;;3.45;2.28;;;16.20;72.40;;;;;;5045275;28;20021;-87
2022/07/06 05:07:28;;;;;;;4.32;2.80;;;16.20;72.30;;;;;;5036292;28;20480;-87
2022/07/06 05:09:53;;;;;;;5.00;2.67;;;16.10;72.30;;;;;;5034777;28;20451;-87
2022/07/06 05:12:19;;;;;;;3.85;2.17;;;16.20;72.40;;;;;;5041899;28;20037;-87
2022/07/06 05:14:45;;;;;;;3.65;2.15;;;16.20;72.80;;;;;;5048231;28;20084;-87
2022/07/06 05:17:10;;;;;;;5.43;2.85;;;16.20;72.80;;;;;;5044565;28;20024;-87
2022/07/06 05:19:36;;;;;;;3.47;2.53;;;16.20;72.40;;;;;;5042418;28;20025;-89
2022/07/06 05:22:02;;;;;;;3.53;2.33;;;16.20;73.10;;;;;;5045759;28;20468;-89
2022/07/06 05:24:28;;;;;;;4.28;2.10;;;16.30;73.10;;;;;;5045398;28;20100;-88
2022/07/06 05:26:53;;;;;;;4.05;2.40;;;16.30;72.90;;;;;;5042090;28;20029;-87
2022/07/06 05:29:19;;;;;;;3.15;1.88;;;16.30;73.00;;;;;;5046305;28;20092;-88
2022/07/06 05:31:45;;;;;;;3.42;2.15;;;16.40;72.90;;;;;;5042202;28;20021;-88
2022/07/06 05:34:10;;;;;;;5.70;2.42;;;16.50;72.60;;;;;;5037613;28;20028;-88
2022/07/06 05:36:36;;;;;;;4.75;2.40;;;16.50;72.30;;;;;;5045384;28;20021;-87
2022/07/06 05:39:02;;;;;;;3.15;2.15;;;16.50;72.40;;;;;;5044370;28;20029;-86
2022/07/06 05:41:27;;;;;;;5.25;2.78;;;16.60;72.20;;;;;;5043276;28;20031;-85
2022/07/06 05:43:53;;;;;;;3.50;2.33;;;16.70;72.00;;;;;;5043863;28;20025;-88
2022/07/06 05:46:19;;;;;;;4.18;2.28;;;16.70;72.50;;;;;;5041717;28;20045;-87
2022/07/06 05:51:28;;;;;;;4.15;2.55;;;16.70;73.10;;;;;;5043894;28;20040;-89
2022/07/06 05:53:54;;;;;;;5.82;2.75;;;16.70;73.30;;;;;;5043684;28;20025;-86
2022/07/06 05:56:20;;;;;;;4.18;2.28;;;16.70;73.40;;;;;;5042677;28;20415;-86
2022/07/06 05:58:45;;;;;;;3.42;2.55;;;16.80;73.70;;;;;;5042990;28;20032;-82
2022/07/06 06:01:11;;;;;;;3.63;2.35;;;16.80;73.30;;;;;;5040265;28;20080;-84
2022/07/06 06:03:38;;;;;;;4.57;2.47;;;16.80;73.60;;;;;;5042870;28;20053;-82
2022/07/06 06:06:04;;;;;;;4.30;2.85;;;16.80;73.00;;;;;;5046518;28;20043;-81
2022/07/06 06:08:29;;;;;;;4.68;2.20;;;16.80;73.80;;;;;;5054553;28;20025;-84
2022/07/06 06:10:55;;;;;;;5.13;3.03;;;16.80;74.20;;;;;;5052349;28;20479;-82
2022/07/06 06:13:21;;;;;;;4.13;2.55;;;16.80;74.40;;;;;;5053581;28;20057;-83
2022/07/06 06:15:46;;;;;;;7.38;3.03;;;16.80;74.60;;;;;;5053854;28;20123;-84
2022/07/06 06:18:12;;;;;;;5.00;2.85;;;16.80;75.30;;;;;;5053772;28;20029;-85
2022/07/06 06:20:38;;;;;;;5.55;3.28;;;16.80;74.80;;;;;;5053672;28;20029;-84
2022/07/06 06:23:04;;;;;;;5.72;3.05;;;16.80;76.10;;;;;;5045250;28;20025;-82
2022/07/06 06:25:34;;;;;;;4.53;2.92;;;16.80;75.40;;;;;;5045670;28;20042;-81
2022/07/06 06:28:02;;;;;;;3.83;2.72;;;16.80;75.80;;;;;;5048834;28;20078;-84
2022/07/06 06:30:27;;;;;;;5.70;2.70;;;16.80;76.40;;;;;;5046668;28;20439;-84
2022/07/06 06:33:13;;;;;;;8.00;3.65;;;16.80;76.30;;;;;;5033826;28;20048;-84
2022/07/06 06:35:46;;;;;;;7.53;2.72;;;16.80;77.20;;;;;;5044972;28;20064;-81
2022/07/06 06:38:12;;;;;;;5.05;3.08;;;16.90;76.30;;;;;;5054982;28;20032;-81
2022/07/06 06:40:38;;;;;;;6.28;2.95;;;16.90;76.60;;;;;;5053587;28;20445;-84
2022/07/06 06:43:04;;;;;;;4.95;2.83;;;16.90;78.90;;;;;;5045034;28;20036;-84
2022/07/06 06:45:30;;;;;;;9.52;3.65;;;17.00;77.30;;;;;;5034910;28;20120;-84
2022/07/06 06:47:57;;;;;;;11.13;3.33;;;17.00;77.70;;;;;;5053606;28;20121;-81
2022/07/06 06:50:23;;;;;;;8.82;3.03;;;17.10;77.90;;;;;;5055651;28;20102;-81
2022/07/06 06:52:50;;;;;;;6.68;3.20;;;17.20;76.90;;;;;;5042869;28;20164;-84
2022/07/06 06:55:16;;;;;;;4.70;2.67;;;17.20;77.40;;;;;;5034621;28;20021;-85
2022/07/06 06:57:42;;;;;;;5.10;2.78;;;17.20;77.40;;;;;;5034770;28;20507;-84
2022/07/06 07:00:08;;;;;;;4.80;2.42;;;17.30;77.70;;;;;;5038587;28;20029;-84
2022/07/06 07:02:34;;;;;;;3.47;2.25;;;17.30;77.40;;;;;;5054486;28;20526;-84
2022/07/06 07:05:00;;;;;;;5.05;2.67;;;17.40;77.40;;;;;;5047503;28;20025;-84
2022/07/06 07:07:26;;;;;;;6.07;2.78;;;17.50;76.80;;;;;;5057476;28;20047;-84
2022/07/06 07:09:51;;;;;;;3.70;2.33;;;17.60;76.80;;;;;;5057026;28;20025;-84
2022/07/06 07:12:17;;;;;;;5.85;2.65;;;17.70;77.00;;;;;;5042691;28;20504;-83
2022/07/06 07:14:43;;;;;;;3.35;2.28;;;17.70;76.40;;;;;;5039081;28;20037;-83
2022/07/06 07:17:10;;;;;;;3.40;2.10;;;17.80;76.30;;;;;;5046799;28;20451;-83
2022/07/06 07:19:36;;;;;;;3.35;2.03;;;17.80;76.30;;;;;;5044688;28;20025;-82
2022/07/06 07:22:02;;;;;;;4.95;2.53;;;17.90;76.90;;;;;;5046517;28;20059;-83
2022/07/06 07:24:27;;;;;;;2.70;2.08;;;18.00;76.50;;;;;;5045963;28;20406;-83
2022/07/06 07:26:53;;;;;;;3.17;2.10;;;18.10;75.80;;;;;;5044747;28;20085;-84
2022/07/06 07:29:19;;;;;;;4.05;2.85;;;18.20;75.30;;;;;;5046074;28;20074;-81
2022/07/06 07:31:44;;;;;;;3.63;2.58;;;18.40;75.10;;;;;;5047169;28;20025;-82
2022/07/06 07:34:10;;;;;;;4.55;2.40;;;18.50;75.20;;;;;;5047613;28;20029;-82
2022/07/06 07:36:36;;;;;;;3.00;2.15;;;18.80;74.80;;;;;;5056487;28;20037;-85
2022/07/06 07:39:02;;;;;;;3.97;1.83;;;19.40;72.60;;;;;;5052626;28;20480;-85
2022/07/06 07:41:28;;;;;;;3.95;1.50;;;20.50;69.60;;;;;;5041572;28;20089;-86
2022/07/06 07:43:54;;;;;;;6.05;1.90;;;22.80;63.40;;;;;;5038813;28;20507;-86
2022/07/06 07:46:20;;;;;;;2.97;1.02;;;25.90;54.90;;;;;;5037162;28;20044;-84
2022/07/06 07:48:45;;;;;;;2.35;1.00;;;29.00;45.90;;;;;;5035814;28;20025;-84
2022/07/06 07:51:11;;;;;;;2.85;1.33;;;31.20;42.30;;;;;;5035844;28;20087;-85
2022/07/06 07:53:37;;;;;;;2.85;1.15;;;33.00;38.30;;;;;;5040967;28;20033;-85
2022/07/06 07:56:03;;;;;;;4.40;1.20;;;34.30;35.50;;;;;;5048118;28;20408;-84
2022/07/06 07:58:28;;;;;;;2.58;0.95;;;34.90;34.00;;;;;;5057090;28;20017;-85
2022/07/06 08:00:54;;;;;;;2.65;1.00;;;35.70;32.40;;;;;;5055505;28;20025;-85
2022/07/06 08:03:20;;;;;;;1.92;0.88;;;36.30;30.10;;;;;;5045534;28;20049;-85
2022/07/06 08:05:47;;;;;;;1.80;0.85;;;36.90;29.50;;;;;;5035705;28;20056;-85
2022/07/06 08:08:13;;;;;;;9.53;1.60;;;37.90;29.10;;;;;;5037239;28;20076;-85
2022/07/06 08:10:39;;;;;;;4.95;1.35;;;38.50;27.60;;;;;;5038445;28;20311;-84
2022/07/06 08:13:06;;;;;;;4.75;1.38;;;38.80;26.40;;;;;;5055426;28;20472;-85
2022/07/06 08:15:33;;;;;;;2.13;0.90;;;39.30;26.90;;;;;;5047041;28;20029;-87
2022/07/06 08:18:02;;;;;;;3.10;1.10;;;39.90;26.40;;;;;;5048239;28;20036;-87
2022/07/06 08:20:27;;;;;;;2.22;0.82;;;40.10;25.10;;;;;;5047963;28;20029;-86
2022/07/06 08:22:53;;;;;;;3.50;0.80;;;39.80;25.20;;;;;;5045528;28;20043;-86
2022/07/06 08:25:19;;;;;;;3.00;1.52;;;40.10;24.60;;;;;;5044309;28;20419;-85
2022/07/06 08:27:44;;;;;;;2.67;1.10;;;40.30;24.10;;;;;;5039055;28;20345;-85
2022/07/06 08:30:11;;;;;;;1.92;0.80;;;40.30;24.00;;;;;;5036701;28;20026;-85
2022/07/06 08:32:41;;;;;;;3.25;1.05;;;40.40;23.60;;;;;;5040527;28;20021;-85
2022/07/06 08:35:07;;;;;;;3.78;0.90;;;40.50;24.50;;;;;;5044116;28;20099;-84
2022/07/06 08:37:33;;;;;;;2.78;0.90;;;40.90;23.10;;;;;;5044075;28;20031;-85
2022/07/06 08:39:59;;;;;;;4.00;1.10;;;40.90;23.40;;;;;;5047956;28;20026;-88
2022/07/06 08:42:30;;;;;;;3.67;1.05;;;41.00;23.70;;;;;;5036190;28;20044;-84
2022/07/06 08:45:00;;;;;;;3.00;1.10;;;41.10;23.10;;;;;;5044082;28;20029;-85
2022/07/06 08:47:27;;;;;;;3.55;1.02;;;41.00;23.00;;;;;;5035457;28;20048;-84
2022/07/06 08:49:53;;;;;;;3.03;1.10;;;40.00;24.20;;;;;;5042185;28;20090;-84
2022/07/06 08:52:20;;;;;;;3.08;0.93;;;39.20;24.30;;;;;;5055519;28;20111;-84
2022/07/06 08:54:46;;;;;;;4.25;1.45;;;39.30;24.20;;;;;;5042821;28;20501;-86
2022/07/06 08:57:12;;;;;;;6.85;1.20;;;38.00;26.10;;;;;;5045609;28;20044;-83
2022/07/06 08:59:39;;;;;;;3.30;1.15;;;37.30;26.40;;;;;;5036966;28;20029;-85
2022/07/06 09:02:05;;;;;;;4.30;1.35;;;36.20;27.60;;;;;;5041416;28;20041;-84
2022/07/06 09:04:33;;;;;;;4.80;1.40;;;36.50;27.70;;;;;;5037229;28;20028;-85
2022/07/06 09:06:59;;;;;;;2.37;0.93;;;34.80;28.80;;;;;;5041340;28;20116;-84
2022/07/06 09:09:25;;;;;;;2.05;1.20;;;33.90;30.20;;;;;;5045372;28;20290;-85
2022/07/06 09:11:51;;;;;;;2.88;1.30;;;32.80;31.90;;;;;;5046708;28;20025;-85
2022/07/06 09:14:18;;;;;;;4.50;1.13;;;32.60;32.50;;;;;;5053663;28;20040;-84
2022/07/06 09:16:47;;;;;;;5.82;1.17;;;32.20;32.70;;;;;;5038294;28;20041;-91
2022/07/06 09:19:13;;;;;;;3.50;1.50;;;31.20;34.40;;;;;;5044050;28;20029;-88
2022/07/06 09:21:41;;;;;;;2.15;1.13;;;32.70;33.30;;;;;;5044053;28;20041;-89
2022/07/06 09:24:10;;;;;;;3.08;1.35;;;32.60;32.90;;;;;;5040708;28;20399;-87
2022/07/06 09:26:39;;;;;;;3.03;1.40;;;31.90;34.10;;;;;;5044503;28;20029;-88
2022/07/06 09:29:06;;;;;;;3.33;1.17;;;30.90;34.10;;;;;;5044801;28;20108;-87
2022/07/06 09:31:32;;;;;;;3.50;1.30;;;30.20;35.20;;;;;;5040767;28;20071;-88
2022/07/06 09:34:09;;;;;;;2.05;1.20;;;29.80;35.90;;;;;;5044832;28;20423;-88
2022/07/06 09:36:41;;;;;;;6.18;1.58;;;29.40;36.20;;;;;;5040970;28;20057;-88
2022/07/06 09:39:16;;;;;;;3.78;1.10;;;29.60;36.60;;;;;;5041193;28;20029;-88
2022/07/06 09:41:42;;;;;;;1.92;1.20;;;29.20;37.40;;;;;;5036684;28;20111;-87
2022/07/06 09:44:09;;;;;;;2.80;1.40;;;29.00;37.00;;;;;;5039028;28;20022;-87
2022/07/06 09:46:41;;;;;;;3.85;1.63;;;30.30;36.10;;;;;;5033327;28;20038;-88
2022/07/06 09:49:16;;;;;;;5.50;1.48;;;32.60;32.90;;;;;;5034084;28;20026;-92
2022/07/06 09:51:52;;;;;;;4.60;1.40;;;32.30;32.70;;;;;;5033643;28;20025;-89
2022/07/06 09:54:21;;;;;;;3.08;1.65;;;31.80;32.60;;;;;;5041914;28;20499;-87
2022/07/06 09:56:50;;;;;;;4.18;1.45;;;32.20;32.10;;;;;;5037255;28;20033;-89
2022/07/06 09:59:18;;;;;;;3.58;1.65;;;31.90;33.20;;;;;;5041838;28;20112;-91
2022/07/06 10:01:45;;;;;;;3.17;1.33;;;32.40;32.10;;;;;;5046402;28;20740;-91
2022/07/06 10:04:20;;;;;;;1.95;1.00;;;33.90;30.90;;;;;;5046836;28;20112;-87
2022/07/06 10:06:50;;;;;;;3.00;1.00;;;35.50;28.20;;;;;;5033440;28;20041;-88
2022/07/06 10:09:19;;;;;;;1.88;0.95;;;36.40;26.20;;;;;;5036322;28;20048;-87
2022/07/06 10:11:51;;;;;;;2.00;1.35;;;36.60;26.70;;;;;;5041039;28;20033;-85
2022/07/06 10:14:22;;;;;;;2.70;1.05;;;37.20;26.50;;;;;;5040734;28;20041;-82
2022/07/06 10:16:49;;;;;;;2.25;0.68;;;37.70;25.20;;;;;;5042833;28;20033;-86
2022/07/06 10:19:18;;;;;;;1.95;0.98;;;37.70;25.30;;;;;;5041218;28;20021;-88
2022/07/06 10:21:48;;;;;;;3.15;1.30;;;37.80;24.80;;;;;;5049514;28;20416;-86
2022/07/06 10:24:14;;;;;;;2.90;0.90;;;37.80;25.00;;;;;;5045964;28;20065;-86
2022/07/06 10:26:41;;;;;;;3.35;1.05;;;38.30;25.10;;;;;;5036026;28;20036;-86
2022/07/06 10:29:08;;;;;;;1.63;0.80;;;37.70;25.60;;;;;;5052809;28;20491;-84
2022/07/06 10:31:38;;;;;;;2.15;0.93;;;37.80;24.90;;;;;;5036224;28;20112;-86
2022/07/06 10:34:08;;;;;;;2.42;1.20;;;37.80;24.90;;;;;;5033286;28;20025;-86
2022/07/06 10:36:38;;;;;;;1.10;0.63;;;37.80;24.50;;;;;;5033610;28;20037;-86
2022/07/06 10:41:02;;;;;;;2.17;0.60;;;37.50;24.90;;;;;;5034107;28;20025;-86
2022/07/06 10:41:50;;;;;;;3.28;0.70;;;37.00;25.80;;;;;;5038577;28;20727;-86
2022/07/06 10:44:26;;;;;;;2.75;0.70;;;35.60;27.40;;;;;;5038737;28;20109;-86
2022/07/06 10:46:57;;;;;;;1.20;0.80;;;34.10;27.90;;;;;;5036912;28;20037;-86
2022/07/06 10:49:24;;;;;;;3.60;0.80;;;33.70;29.90;;;;;;5038675;28;20340;-86
2022/07/06 10:51:50;;;;;;;1.70;0.73;;;33.40;30.60;;;;;;5037377;28;20022;-86
2022/07/06 10:54:18;;;;;;;1.55;0.77;;;33.00;30.10;;;;;;5038565;28;20507;-86
2022/07/06 10:56:49;;;;;;;2.05;0.70;;;32.80;30.70;;;;;;5038267;28;20037;-86
2022/07/06 10:59:20;;;;;;;3.38;0.75;;;32.30;30.70;;;;;;5038593;28;20022;-86
2022/07/06 11:02:14;;;;;;;1.77;0.70;;;31.80;31.70;;;;;;5055931;28;20557;-87
2022/07/06 11:04:41;;;;;;;1.98;0.80;;;31.60;33.00;;;;;;5055997;28;20027;-86
2022/07/06 11:07:09;;;;;;;2.33;0.82;;;31.70;33.10;;;;;;5056432;28;20029;-86
2022/07/06 11:09:36;;;;;;;3.83;1.95;;;31.50;32.30;;;;;;5056921;28;20025;-86
2022/07/06 11:12:15;;;;;;;2.78;1.10;;;31.20;32.60;;;;;;5043452;28;20557;-86
2022/07/06 11:14:41;;;;;;;4.03;1.25;;;30.90;32.90;;;;;;5038303;28;20028;-86
2022/07/06 11:17:09;;;;;;;3.15;0.77;;;30.70;33.60;;;;;;5041822;28;20028;-86
2022/07/06 11:19:35;;;;;;;2.30;0.80;;;30.70;33.50;;;;;;5036731;28;20032;-90
2022/07/06 11:22:08;;;;;;;2.85;0.75;;;30.70;33.70;;;;;;5038703;28;20021;-84
2022/07/06 11:24:36;;;;;;;4.00;1.17;;;30.60;33.80;;;;;;5038734;28;20087;-77
2022/07/06 11:27:03;;;;;;;2.97;1.40;;;30.60;33.50;;;;;;5046161;28;20051;-79
2022/07/06 11:29:29;;;;;;;2.67;1.20;;;30.50;34.60;;;;;;5049111;28;20136;-76
2022/07/06 11:32:03;;;;;;;4.25;1.52;;;30.50;33.90;;;;;;5039396;28;20388;-77
2022/07/06 11:34:33;;;;;;;3.00;1.00;;;30.40;34.90;;;;;;5041142;28;20081;-78
2022/07/06 11:37:07;;;;;;;1.63;0.60;;;30.30;35.20;;;;;;5051768;28;20029;-76
2022/07/06 11:39:36;;;;;;;1.35;0.75;;;30.10;34.30;;;;;;5056377;28;20052;-76
2022/07/06 11:42:05;;;;;;;1.85;0.85;;;30.20;35.10;;;;;;5042403;28;20404;-77
2022/07/06 11:44:32;;;;;;;2.97;0.88;;;30.00;34.60;;;;;;5037992;28;20026;-76
2022/07/06 11:47:00;;;;;;;1.58;1.05;;;29.80;36.30;;;;;;5037889;28;20046;-76
2022/07/06 11:49:26;;;;;;;2.50;0.95;;;29.70;35.60;;;;;;5037803;28;20491;-77
2022/07/06 11:51:52;;;;;;;1.75;0.70;;;29.70;34.60;;;;;;5035958;28;20064;-76
2022/07/06 11:54:20;;;;;;;4.18;1.20;;;29.70;35.20;;;;;;5039182;28;20029;-77
2022/07/06 11:56:53;;;;;;;2.97;1.05;;;29.70;35.80;;;;;;5037653;28;20021;-76
2022/07/06 11:59:28;;;;;;;2.70;1.25;;;29.80;36.10;;;;;;5037651;28;20039;-76
2022/07/06 12:02:11;;;;;;;2.47;0.70;;;29.70;36.70;;;;;;5056539;28;20074;-82
2022/07/06 12:04:40;;;;;;;1.15;0.70;;;29.60;36.10;;;;;;5045232;28;20087;-78
2022/07/06 12:07:08;;;;;;;1.40;0.68;;;29.70;37.40;;;;;;5037608;28;20101;-77
2022/07/06 12:09:35;;;;;;;4.85;0.82;;;29.80;35.50;;;;;;5037021;28;20029;-85
2022/07/06 12:12:05;;;;;;;2.25;1.08;;;29.80;34.70;;;;;;5050707;28;20029;-90
2022/07/06 12:14:34;;;;;;;2.40;0.95;;;29.90;35.00;;;;;;5052567;28;20047;-79
2022/07/06 12:17:11;;;;;;;7.43;1.67;;;29.90;35.50;;;;;;5037747;28;20017;-77
2022/07/06 12:19:37;;;;;;;4.50;0.80;;;30.00;35.30;;;;;;5036098;28;20029;-83
2022/07/06 12:22:05;;;;;;;2.28;0.82;;;30.10;35.60;;;;;;5039201;28;20032;-79
2022/07/06 12:24:33;;;;;;;1.88;0.77;;;29.80;35.60;;;;;;5046521;28;20025;-77
2022/07/06 12:27:09;;;;;;;3.47;0.80;;;29.70;35.60;;;;;;5043449;28;20435;-77
2022/07/06 12:29:35;;;;;;;1.50;0.60;;;29.90;35.80;;;;;;5039212;28;20036;-77
2022/07/06 12:32:01;;;;;;;1.92;0.85;;;30.00;36.00;;;;;;5041750;28;20488;-78
2022/07/06 12:34:30;;;;;;;2.20;0.70;;;30.00;35.30;;;;;;5042637;28;20033;-77
2022/07/06 12:37:06;;;;;;;3.75;0.90;;;29.80;35.40;;;;;;5041672;28;20467;-78
2022/07/06 12:39:45;;;;;;;2.25;0.90;;;30.00;36.00;;;;;;5044799;28;20740;-79
2022/07/06 12:42:14;;;;;;;2.03;0.60;;;29.90;36.40;;;;;;5044161;28;20022;-77
2022/07/06 12:44:48;;;;;;;13.48;1.83;;;29.90;35.60;;;;;;5042792;28;20029;-78
2022/07/06 12:47:18;;;;;;;1.67;0.60;;;29.80;35.80;;;;;;5042130;28;20047;-77
2022/07/06 12:49:43;;;;;;;3.97;1.20;;;29.80;35.60;;;;;;5042063;28;20064;-77